Terminal Aerodrome Forecast
Issued by NWS

Home | Current Version | Previous Version | Text Only | Print | Product List | Glossary On
Versions: 1 2 3 4 5 6 7 8 9 10 11 12
000
FTAK31 PANC 241146
TAFAAQ
TAF
PAAQ 241146Z 2412/2512 10007KT P6SM BKN050 OVC070
     FM242100 20006KT P6SM SCT035 BKN060 OVC090=

USA.gov is the U.S. government's official web portal to all federal, state and local government web resources and services.